Terminal Aerodrome Forecast
Issued by NWS

Home | Current Version | Previous Version | Text Only | Print | Product List | Glossary On
Versions: 1 2 3 4 5 6 7 8 9 10 11 12 13 14 15 16 17 18 19 20 21 22 23 24 25
875
FTUS41 KRLX 242109 AAC
TAFCKB
TAF AMD
KCKB 242109Z 2421/2518 19009KT P6SM SKC
     FM251100 18008KT 6SM -SHRA BR OVC040
     FM251300 21010KT 4SM SHRA OVC040
     FM251600 27012G22KT 3SM SHRA OVC025=

USA.gov is the U.S. government's official web portal to all federal, state and local government web resources and services.